Time;durP1;ratioP1;P1;durP2;ratioP2;P2;SDS_P1;SDS_P2;PMS_P1;PMS_P2;Temp;Humidity;BMP_temperature;BMP_pressure;BME280_temperature;BME280_humidity;BME280_pressure;Samples;Min_cycle;Max_cycle;Signal;HPM_P1;HPM_P2
2021/11/21 00:02:14;;;;;;;36.37;21.03;;;8.30;99.90;;;;;;5079842;28;20299;-54
2021/11/21 00:04:41;;;;;;;35.43;20.00;;;8.30;99.90;;;;;;5077362;28;20204;-53
2021/11/21 00:07:08;;;;;;;34.63;20.23;;;8.30;99.90;;;;;;5078506;28;20288;-53
2021/11/21 00:09:34;;;;;;;34.93;20.80;;;8.30;99.90;;;;;;5080164;28;20239;-52
2021/11/21 00:12:01;;;;;;;34.87;20.90;;;8.30;99.90;;;;;;5079605;28;20225;-53
2021/11/21 00:14:30;;;;;;;37.77;21.23;;;8.30;99.90;;;;;;5080267;28;21176;-51
2021/11/21 00:17:01;;;;;;;32.47;19.93;;;8.40;99.90;;;;;;5079104;28;20293;-51
2021/11/21 00:19:28;;;;;;;33.43;19.67;;;8.40;99.90;;;;;;5080528;28;20230;-53
2021/11/21 00:21:55;;;;;;;31.27;18.87;;;8.30;99.90;;;;;;5071524;28;20285;-52
2021/11/21 00:24:21;;;;;;;36.07;20.03;;;8.20;99.90;;;;;;5077262;28;20807;-53
2021/11/21 00:26:48;;;;;;;33.83;19.90;;;8.20;99.90;;;;;;5060103;28;20223;-53
2021/11/21 00:29:15;;;;;;;34.40;20.03;;;8.30;99.90;;;;;;5078489;28;20268;-52
2021/11/21 00:31:42;;;;;;;34.37;19.37;;;8.30;99.90;;;;;;5068508;28;20287;-52
2021/11/21 00:34:09;;;;;;;32.93;19.27;;;8.30;99.90;;;;;;5077515;28;20569;-52
2021/11/21 00:36:36;;;;;;;38.50;20.30;;;8.20;99.90;;;;;;5077214;28;20250;-54
2021/11/21 00:39:04;;;;;;;34.63;18.73;;;8.20;99.90;;;;;;5080582;28;20223;-53
2021/11/21 00:41:31;;;;;;;35.10;18.73;;;8.20;99.90;;;;;;5077556;28;20201;-53
2021/11/21 00:43:57;;;;;;;39.73;19.80;;;8.20;99.90;;;;;;5072514;28;20301;-52
2021/11/21 00:46:26;;;;;;;38.20;20.47;;;8.20;99.90;;;;;;5075803;28;20286;-52
2021/11/21 00:48:54;;;;;;;36.40;20.60;;;8.20;99.90;;;;;;5078981;28;20287;-55
2021/11/21 00:51:21;;;;;;;36.43;19.97;;;8.20;99.90;;;;;;5076292;28;20256;-54
2021/11/21 00:53:52;;;;;;;34.50;18.63;;;8.20;99.90;;;;;;5061230;28;20230;-52
2021/11/21 00:56:19;;;;;;;34.23;17.70;;;8.20;99.90;;;;;;5076022;28;20679;-52
2021/11/21 00:58:46;;;;;;;34.57;19.00;;;8.30;99.90;;;;;;5077508;28;20237;-51
2021/11/21 01:01:13;;;;;;;37.30;19.67;;;8.20;99.90;;;;;;5078871;28;20657;-52
2021/11/21 01:03:42;;;;;;;40.10;19.70;;;8.20;99.90;;;;;;5077615;28;20634;-52
2021/11/21 01:06:09;;;;;;;38.70;19.47;;;8.30;99.90;;;;;;5077420;28;20210;-53
2021/11/21 01:08:36;;;;;;;39.50;20.43;;;8.30;99.90;;;;;;5078494;28;20288;-51
2021/11/21 01:11:05;;;;;;;37.40;20.43;;;8.30;99.90;;;;;;5075614;28;20225;-51
2021/11/21 01:13:34;;;;;;;33.60;18.97;;;8.30;99.90;;;;;;5080508;28;20244;-53
2021/11/21 01:16:01;;;;;;;36.40;20.07;;;8.30;99.90;;;;;;5075858;28;20576;-51
2021/11/21 01:18:28;;;;;;;33.90;19.23;;;8.40;99.90;;;;;;5076186;28;20297;-51
2021/11/21 01:20:55;;;;;;;31.37;18.13;;;8.40;99.90;;;;;;5069463;28;20662;-52
2021/11/21 01:23:22;;;;;;;32.93;18.43;;;8.40;99.90;;;;;;5075379;28;20573;-51
2021/11/21 01:25:49;;;;;;;32.40;17.87;;;8.30;99.90;;;;;;5079688;28;20202;-52
2021/11/21 01:28:16;;;;;;;32.47;17.73;;;8.30;99.90;;;;;;5075961;28;20216;-51
2021/11/21 01:30:44;;;;;;;32.77;18.10;;;8.30;99.90;;;;;;5077930;28;20295;-52
2021/11/21 01:33:11;;;;;;;32.70;18.27;;;8.30;99.90;;;;;;5077127;28;20304;-51
2021/11/21 01:35:38;;;;;;;34.57;18.23;;;8.30;99.90;;;;;;5074862;28;20296;-54
2021/11/21 01:38:06;;;;;;;33.40;19.10;;;8.30;99.90;;;;;;5077088;28;20310;-54
2021/11/21 01:40:33;;;;;;;33.73;17.00;;;8.40;99.90;;;;;;5078667;28;20240;-52
2021/11/21 01:43:00;;;;;;;33.00;18.67;;;8.40;99.90;;;;;;5076932;28;20226;-52
2021/11/21 01:45:27;;;;;;;36.03;19.47;;;8.40;99.90;;;;;;5079027;28;20296;-51
2021/11/21 01:47:54;;;;;;;34.37;17.60;;;8.40;99.90;;;;;;5076644;28;21483;-52
2021/11/21 01:50:31;;;;;;;34.37;17.67;;;8.30;99.90;;;;;;5055659;28;20596;-52
2021/11/21 01:52:59;;;;;;;32.67;18.10;;;8.40;99.90;;;;;;5078009;28;20331;-51
2021/11/21 01:55:26;;;;;;;33.27;17.03;;;8.30;99.90;;;;;;5078223;28;20226;-52
2021/11/21 01:57:54;;;;;;;34.77;18.03;;;8.40;99.90;;;;;;5076695;28;20197;-51
2021/11/21 02:00:22;;;;;;;33.57;17.23;;;8.30;99.90;;;;;;5057546;28;20267;-52
2021/11/21 02:02:49;;;;;;;34.47;17.83;;;8.30;99.90;;;;;;5076973;28;20372;-51
2021/11/21 02:05:16;;;;;;;33.23;17.43;;;8.30;99.90;;;;;;5078867;28;20235;-52
2021/11/21 02:07:46;;;;;;;34.43;17.87;;;8.30;99.90;;;;;;5077468;28;20226;-52
2021/11/21 02:10:16;;;;;;;34.60;18.83;;;8.40;99.90;;;;;;5058747;28;20720;-51
2021/11/21 02:12:43;;;;;;;35.47;18.57;;;8.40;99.90;;;;;;5079118;28;20212;-51
2021/11/21 02:15:13;;;;;;;34.83;18.00;;;8.40;99.90;;;;;;5075685;28;20675;-54
2021/11/21 02:17:41;;;;;;;35.13;18.43;;;8.40;99.90;;;;;;5081449;28;20305;-52
2021/11/21 02:20:13;;;;;;;39.77;19.37;;;8.40;99.90;;;;;;5084206;28;20325;-50
2021/11/21 02:22:41;;;;;;;31.67;16.63;;;8.40;99.90;;;;;;5079482;28;20224;-51
2021/11/21 02:25:09;;;;;;;37.73;18.60;;;8.40;99.90;;;;;;5082350;28;20285;-53
2021/11/21 02:27:37;;;;;;;35.20;18.00;;;8.40;99.90;;;;;;5080395;28;20285;-51
2021/11/21 02:30:07;;;;;;;34.47;18.10;;;8.40;99.90;;;;;;5059329;28;20239;-52
2021/11/21 02:32:35;;;;;;;34.50;18.50;;;8.40;99.90;;;;;;5082243;28;20260;-52
2021/11/21 02:35:03;;;;;;;38.93;19.47;;;8.40;99.90;;;;;;5079985;28;20236;-52
2021/11/21 02:37:30;;;;;;;38.23;20.03;;;8.40;99.90;;;;;;5080406;28;20227;-53
2021/11/21 02:39:56;;;;;;;40.03;20.23;;;8.40;99.90;;;;;;5080417;28;20258;-53
2021/11/21 02:42:30;;;;;;;37.30;18.90;;;8.40;99.90;;;;;;5080481;28;20662;-54
2021/11/21 02:44:58;;;;;;;40.80;19.97;;;8.40;99.90;;;;;;5079327;28;20206;-52
2021/11/21 02:47:32;;;;;;;37.53;19.70;;;8.40;99.90;;;;;;5077298;28;20274;-51
2021/11/21 02:50:00;;;;;;;39.57;20.80;;;8.40;99.90;;;;;;5073241;28;20297;-53
2021/11/21 02:52:27;;;;;;;37.20;19.50;;;8.40;99.90;;;;;;5079433;28;20589;-54
2021/11/21 02:54:56;;;;;;;43.47;19.63;;;8.40;99.90;;;;;;5078918;28;20213;-52
2021/11/21 02:57:23;;;;;;;42.10;21.30;;;8.40;99.90;;;;;;5078572;28;20636;-51
2021/11/21 02:59:51;;;;;;;40.27;19.13;;;8.50;99.90;;;;;;5079652;28;20631;-52
2021/11/21 03:02:19;;;;;;;37.53;19.23;;;8.40;99.90;;;;;;5080076;28;20591;-54
2021/11/21 03:04:48;;;;;;;42.07;20.87;;;8.40;99.90;;;;;;5077394;28;20261;-53
2021/11/21 03:07:16;;;;;;;42.80;20.37;;;8.40;99.90;;;;;;5079443;28;20254;-52
2021/11/21 03:09:45;;;;;;;43.77;20.73;;;8.50;99.90;;;;;;5063503;28;20206;-52
2021/11/21 03:12:12;;;;;;;42.03;20.33;;;8.50;99.90;;;;;;5080514;28;20259;-52
2021/11/21 03:14:39;;;;;;;42.87;21.03;;;8.50;99.90;;;;;;5078416;28;20348;-52
2021/11/21 03:17:06;;;;;;;42.60;20.73;;;8.50;99.90;;;;;;5079595;28;20244;-51
2021/11/21 03:19:33;;;;;;;42.43;20.20;;;8.50;99.90;;;;;;5078772;28;22462;-51
2021/11/21 03:22:00;;;;;;;46.47;21.50;;;8.50;99.90;;;;;;5071964;28;20235;-53
2021/11/21 03:24:27;;;;;;;46.67;22.00;;;8.40;99.90;;;;;;5078524;28;20203;-53
2021/11/21 03:26:54;;;;;;;47.53;21.83;;;8.50;99.90;;;;;;5066055;28;20328;-51
2021/11/21 03:29:21;;;;;;;39.53;21.07;;;8.50;99.90;;;;;;5076326;28;20319;-54
2021/11/21 03:31:48;;;;;;;43.60;21.70;;;8.50;99.90;;;;;;5078719;28;20226;-51
2021/11/21 03:34:15;;;;;;;42.03;21.50;;;8.50;99.90;;;;;;5080831;28;20230;-53
2021/11/21 03:36:42;;;;;;;41.07;21.20;;;8.50;99.90;;;;;;5065412;28;20733;-53
2021/11/21 03:39:09;;;;;;;41.73;21.37;;;8.50;99.90;;;;;;5077288;28;20232;-53
2021/11/21 03:41:37;;;;;;;49.00;21.83;;;8.50;99.90;;;;;;5083011;28;20300;-52
2021/11/21 03:44:05;;;;;;;46.53;21.73;;;8.50;99.90;;;;;;5085149;28;20232;-51
2021/11/21 03:46:33;;;;;;;41.53;21.57;;;8.60;99.90;;;;;;5083183;28;20230;-51
2021/11/21 03:49:01;;;;;;;42.67;21.27;;;8.60;99.90;;;;;;5077900;28;20201;-51
2021/11/21 03:51:27;;;;;;;43.37;21.97;;;8.60;99.90;;;;;;5083123;28;20218;-50
2021/11/21 03:53:54;;;;;;;45.30;22.17;;;8.60;99.90;;;;;;5063771;28;20295;-52
2021/11/21 03:56:21;;;;;;;45.57;21.87;;;8.60;99.90;;;;;;5082878;28;20573;-53
2021/11/21 03:58:48;;;;;;;41.87;21.00;;;8.60;99.90;;;;;;5073602;28;20262;-51
2021/11/21 04:01:15;;;;;;;46.87;21.20;;;8.70;99.90;;;;;;5079050;28;20252;-52
2021/11/21 04:03:43;;;;;;;38.37;19.77;;;8.70;99.90;;;;;;5071000;28;20285;-50
2021/11/21 04:06:10;;;;;;;43.83;22.57;;;8.80;99.90;;;;;;5062525;28;20343;-52
2021/11/21 04:08:37;;;;;;;41.90;20.53;;;8.70;99.90;;;;;;5080947;28;20335;-51
2021/11/21 04:11:04;;;;;;;42.53;21.90;;;8.80;99.90;;;;;;5076534;28;20282;-52
2021/11/21 04:13:32;;;;;;;41.20;19.87;;;8.80;99.90;;;;;;5079668;28;20332;-51
2021/11/21 04:15:59;;;;;;;44.27;21.37;;;8.80;99.90;;;;;;5079592;28;20712;-51
2021/11/21 04:18:26;;;;;;;48.93;21.73;;;8.80;99.90;;;;;;5078421;28;20722;-52
2021/11/21 04:20:53;;;;;;;37.23;19.97;;;8.80;99.90;;;;;;5074820;28;20251;-53
2021/11/21 04:23:20;;;;;;;45.43;23.23;;;8.70;99.90;;;;;;5075511;28;20213;-52
2021/11/21 04:25:47;;;;;;;42.03;21.50;;;8.80;99.90;;;;;;5079439;28;20194;-51
2021/11/21 04:28:14;;;;;;;42.30;22.70;;;8.70;99.90;;;;;;5079389;28;20275;-53
2021/11/21 04:30:40;;;;;;;49.03;22.70;;;8.80;99.90;;;;;;5077890;28;20302;-52
2021/11/21 04:33:07;;;;;;;47.87;22.27;;;8.80;99.90;;;;;;5078564;28;20230;-52
2021/11/21 04:35:34;;;;;;;49.30;23.60;;;8.80;99.90;;;;;;5079102;28;20247;-52
2021/11/21 04:38:01;;;;;;;47.53;23.57;;;8.80;99.90;;;;;;5071113;28;20236;-52
2021/11/21 04:40:28;;;;;;;50.23;23.17;;;8.70;99.90;;;;;;5077965;28;20300;-52
2021/11/21 04:42:55;;;;;;;51.40;24.80;;;8.80;99.90;;;;;;5070145;28;20204;-51
2021/11/21 04:45:22;;;;;;;53.80;25.17;;;8.80;99.90;;;;;;5069164;28;20241;-51
2021/11/21 04:47:48;;;;;;;45.60;22.50;;;8.80;99.90;;;;;;5068948;28;20198;-50
2021/11/21 04:50:16;;;;;;;51.87;23.97;;;8.80;99.90;;;;;;5080918;28;20213;-53
2021/11/21 04:52:43;;;;;;;52.87;24.93;;;8.80;99.90;;;;;;5079786;28;20571;-52
2021/11/21 04:55:12;;;;;;;52.03;23.77;;;8.80;99.90;;;;;;5079704;28;20907;-51
2021/11/21 04:57:41;;;;;;;49.50;23.73;;;9.00;99.90;;;;;;5077426;28;20287;-51
2021/11/21 05:00:16;;;;;;;48.47;22.97;;;9.00;99.90;;;;;;5077837;28;20229;-53
2021/11/21 05:02:48;;;;;;;49.27;23.47;;;8.90;99.90;;;;;;5077784;28;20207;-52
2021/11/21 05:05:17;;;;;;;51.03;23.70;;;9.00;99.90;;;;;;5078579;28;20228;-52
2021/11/21 05:07:44;;;;;;;54.37;23.10;;;9.00;99.90;;;;;;5076107;28;21735;-52
2021/11/21 05:10:12;;;;;;;50.60;23.30;;;9.10;99.90;;;;;;5076411;28;20568;-51
2021/11/21 05:12:40;;;;;;;48.37;22.87;;;9.20;99.90;;;;;;5080439;28;20673;-51
2021/11/21 05:15:10;;;;;;;49.67;23.80;;;9.20;99.90;;;;;;5076488;28;20255;-52
2021/11/21 05:17:37;;;;;;;49.33;22.63;;;9.10;99.90;;;;;;5077917;28;20242;-51
2021/11/21 05:20:05;;;;;;;43.67;21.57;;;9.20;99.90;;;;;;5081195;28;20261;-54
2021/11/21 05:22:32;;;;;;;47.43;23.17;;;9.40;99.90;;;;;;5068733;28;20202;-52
2021/11/21 05:24:59;;;;;;;40.57;19.83;;;9.30;99.90;;;;;;5075775;28;20207;-51
2021/11/21 05:27:25;;;;;;;39.57;19.67;;;9.40;99.90;;;;;;5076078;28;20712;-52
2021/11/21 05:29:53;;;;;;;37.93;19.17;;;9.30;99.90;;;;;;5076223;28;20610;-53
2021/11/21 05:32:20;;;;;;;33.10;14.90;;;9.20;99.90;;;;;;5079021;28;20237;-54
2021/11/21 05:34:47;;;;;;;28.93;14.30;;;9.20;99.90;;;;;;5077051;28;20705;-52
2021/11/21 05:37:14;;;;;;;25.47;13.13;;;9.30;99.90;;;;;;5077772;28;20253;-52
2021/11/21 05:39:41;;;;;;;26.40;13.73;;;9.50;99.90;;;;;;5077161;28;20725;-52
2021/11/21 05:42:08;;;;;;;24.30;12.13;;;9.60;99.90;;;;;;5077539;28;20264;-51
2021/11/21 05:44:35;;;;;;;22.27;11.73;;;9.60;99.90;;;;;;5076201;28;20206;-53
2021/11/21 05:47:02;;;;;;;20.60;10.70;;;9.70;99.90;;;;;;5079293;28;20191;-52
2021/11/21 05:49:29;;;;;;;17.63;9.73;;;9.70;99.90;;;;;;5077791;28;20574;-54
2021/11/21 05:51:56;;;;;;;19.70;9.70;;;9.80;99.90;;;;;;5076216;28;20203;-51
2021/11/21 05:54:23;;;;;;;16.87;10.37;;;9.90;99.90;;;;;;5082168;28;20715;-52
2021/11/21 05:56:50;;;;;;;20.97;9.83;;;9.90;99.90;;;;;;5079585;28;20285;-52
2021/11/21 05:59:16;;;;;;;19.17;9.80;;;9.90;99.90;;;;;;5081146;28;20276;-51
2021/11/21 06:01:43;;;;;;;17.43;9.40;;;9.90;99.90;;;;;;5065362;28;20212;-52
2021/11/21 06:04:10;;;;;;;14.80;9.50;;;9.90;99.90;;;;;;5082610;28;20199;-51
2021/11/21 06:06:37;;;;;;;18.43;9.67;;;9.90;99.90;;;;;;5080908;28;20292;-52
2021/11/21 06:09:04;;;;;;;18.13;9.23;;;9.90;99.90;;;;;;5081508;28;20236;-51
2021/11/21 06:11:31;;;;;;;17.23;9.33;;;10.00;99.90;;;;;;5081205;28;20294;-51
2021/11/21 06:13:58;;;;;;;18.87;10.00;;;10.00;99.90;;;;;;5081182;28;20928;-51
2021/11/21 06:16:24;;;;;;;20.10;11.13;;;10.10;99.90;;;;;;5080408;28;20207;-52
2021/11/21 06:18:51;;;;;;;15.40;9.00;;;10.10;99.90;;;;;;5080704;28;20314;-51
2021/11/21 06:21:18;;;;;;;17.43;10.20;;;10.20;99.90;;;;;;5071764;28;20241;-52
2021/11/21 06:23:45;;;;;;;17.10;8.83;;;10.10;99.90;;;;;;5077139;28;20263;-52
2021/11/21 06:26:12;;;;;;;15.40;9.23;;;10.10;99.90;;;;;;5066667;28;20325;-52
2021/11/21 06:28:40;;;;;;;14.70;8.90;;;10.10;99.90;;;;;;5081493;28;20643;-51
2021/11/21 06:31:07;;;;;;;12.47;8.63;;;10.20;99.90;;;;;;5082591;28;20583;-53
2021/11/21 06:33:34;;;;;;;14.10;9.13;;;10.10;99.90;;;;;;5085293;28;21061;-53
2021/11/21 06:36:02;;;;;;;15.53;9.53;;;10.00;99.90;;;;;;5081693;28;20206;-53
2021/11/21 06:38:32;;;;;;;14.77;8.80;;;10.10;99.90;;;;;;5079610;28;20210;-51
2021/11/21 06:40:59;;;;;;;15.13;8.63;;;10.10;99.90;;;;;;5082095;28;20250;-50
2021/11/21 06:43:28;;;;;;;13.77;8.30;;;10.20;99.90;;;;;;5071980;28;20209;-50
2021/11/21 06:45:55;;;;;;;13.50;8.37;;;10.20;99.90;;;;;;5080859;28;20229;-52
2021/11/21 06:48:22;;;;;;;18.77;9.00;;;10.20;99.90;;;;;;5080036;28;20727;-52
2021/11/21 06:50:52;;;;;;;14.50;7.80;;;10.20;99.90;;;;;;5061135;28;20214;-51
2021/11/21 06:53:20;;;;;;;12.43;7.87;;;10.20;99.90;;;;;;5080518;28;20294;-50
2021/11/21 06:55:47;;;;;;;12.33;7.43;;;10.20;99.90;;;;;;5082212;28;20262;-50
2021/11/21 06:58:14;;;;;;;11.87;7.80;;;10.10;99.90;;;;;;5080224;28;20296;-52
2021/11/21 07:00:41;;;;;;;14.03;7.13;;;10.20;99.90;;;;;;5075752;28;20245;-54
2021/11/21 07:03:08;;;;;;;9.53;6.53;;;10.10;99.90;;;;;;5079573;28;20205;-50
2021/11/21 07:05:35;;;;;;;12.03;6.57;;;10.20;99.90;;;;;;5079060;28;20205;-51
2021/11/21 07:08:02;;;;;;;9.00;5.60;;;10.20;99.90;;;;;;5076799;28;20199;-52
2021/11/21 07:10:29;;;;;;;8.63;5.50;;;10.20;99.90;;;;;;5074500;28;20919;-52
2021/11/21 07:12:58;;;;;;;11.80;6.80;;;10.20;99.90;;;;;;5069310;28;20191;-53
2021/11/21 07:15:25;;;;;;;11.30;6.70;;;10.20;99.90;;;;;;5077401;28;20229;-52
2021/11/21 07:17:53;;;;;;;7.47;4.80;;;10.20;99.90;;;;;;5077197;28;20664;-51
2021/11/21 07:20:20;;;;;;;9.93;5.00;;;10.20;99.90;;;;;;5079449;28;20718;-52
2021/11/21 07:22:50;;;;;;;6.37;4.03;;;10.10;99.90;;;;;;5066755;28;20938;-52
2021/11/21 07:25:21;;;;;;;7.87;4.40;;;10.20;99.90;;;;;;5075148;28;20271;-52
2021/11/21 07:27:49;;;;;;;8.77;5.57;;;10.20;99.90;;;;;;5068378;28;20616;-52
2021/11/21 07:30:19;;;;;;;8.10;4.40;;;10.30;99.90;;;;;;5080605;28;20229;-52
2021/11/21 07:32:47;;;;;;;8.27;4.70;;;10.30;99.90;;;;;;5079530;28;20222;-53
2021/11/21 07:35:17;;;;;;;8.97;5.70;;;10.30;99.90;;;;;;5080975;28;20739;-51
2021/11/21 07:37:45;;;;;;;11.00;6.33;;;10.30;99.90;;;;;;5077872;28;20198;-52
2021/11/21 07:40:13;;;;;;;9.00;5.50;;;10.40;99.90;;;;;;5079784;28;20222;-53
2021/11/21 07:42:42;;;;;;;13.40;6.57;;;10.30;99.90;;;;;;5076808;28;20275;-53
2021/11/21 07:45:10;;;;;;;9.97;5.80;;;10.40;99.90;;;;;;5079317;28;20253;-53
2021/11/21 07:47:40;;;;;;;10.57;6.07;;;10.30;99.90;;;;;;5078330;28;20239;-52
2021/11/21 07:50:07;;;;;;;8.87;5.73;;;10.40;99.90;;;;;;5080903;28;20203;-52
2021/11/21 07:52:34;;;;;;;7.83;5.87;;;10.40;99.90;;;;;;5077482;28;20231;-52
2021/11/21 07:55:02;;;;;;;11.23;5.40;;;10.30;99.90;;;;;;5079877;28;20761;-53
2021/11/21 07:57:29;;;;;;;7.87;4.93;;;10.30;99.90;;;;;;5076659;28;20225;-52
2021/11/21 07:59:55;;;;;;;10.50;5.17;;;10.30;99.90;;;;;;5077509;28;20678;-50
2021/11/21 08:02:22;;;;;;;6.70;3.57;;;10.30;99.90;;;;;;5079535;28;20274;-53
2021/11/21 08:04:49;;;;;;;7.70;3.60;;;10.20;99.90;;;;;;5078078;28;20247;-52
2021/11/21 08:07:16;;;;;;;9.00;3.57;;;10.30;99.90;;;;;;5079556;28;20644;-53
2021/11/21 08:09:43;;;;;;;7.67;3.40;;;10.30;99.90;;;;;;5061934;28;20311;-52
2021/11/21 08:12:10;;;;;;;6.73;2.97;;;10.30;99.90;;;;;;5078782;28;20440;-52
2021/11/21 08:14:38;;;;;;;5.43;3.23;;;10.30;99.90;;;;;;5077919;28;20231;-53
2021/11/21 08:17:05;;;;;;;4.80;2.53;;;10.30;99.90;;;;;;5080434;28;20215;-54
2021/11/21 08:19:32;;;;;;;5.50;2.53;;;10.40;99.90;;;;;;5080963;28;20255;-53
2021/11/21 08:22:00;;;;;;;5.47;2.33;;;10.30;99.90;;;;;;5074154;28;20302;-53
2021/11/21 08:24:27;;;;;;;6.43;2.40;;;10.20;99.90;;;;;;5079282;28;20590;-52
2021/11/21 08:26:54;;;;;;;7.43;2.53;;;10.20;99.90;;;;;;5079554;28;20240;-52
2021/11/21 08:29:21;;;;;;;4.83;2.20;;;10.20;99.90;;;;;;5077715;28;20207;-52
2021/11/21 08:31:57;;;;;;;7.40;3.20;;;10.30;99.90;;;;;;5073770;28;20668;-53
2021/11/21 08:34:25;;;;;;;6.20;2.23;;;10.30;99.90;;;;;;5079269;28;20207;-53
2021/11/21 08:36:53;;;;;;;5.60;1.90;;;10.40;99.90;;;;;;5064175;28;20733;-53
2021/11/21 08:39:23;;;;;;;8.17;2.30;;;10.30;99.90;;;;;;5072753;28;20200;-52
2021/11/21 08:41:51;;;;;;;10.27;2.03;;;10.40;99.90;;;;;;5075166;28;20628;-54
2021/11/21 08:44:18;;;;;;;7.60;2.30;;;10.30;99.90;;;;;;5078751;28;20243;-51
2021/11/21 08:46:46;;;;;;;6.47;2.17;;;10.30;99.90;;;;;;5079607;28;20334;-52
2021/11/21 08:49:14;;;;;;;6.27;1.50;;;10.30;99.90;;;;;;5078350;28;20274;-51
2021/11/21 08:51:43;;;;;;;5.37;1.77;;;10.40;99.90;;;;;;5079361;28;20233;-51
2021/11/21 08:54:10;;;;;;;6.07;1.73;;;10.30;99.90;;;;;;5079821;28;20334;-53
2021/11/21 08:56:38;;;;;;;12.77;1.90;;;10.40;99.90;;;;;;5078124;28;20267;-51
2021/11/21 08:59:06;;;;;;;4.73;1.37;;;10.50;99.90;;;;;;5060100;28;20267;-51
2021/11/21 09:01:33;;;;;;;7.10;1.90;;;10.50;99.90;;;;;;5079446;28;20667;-51
2021/11/21 09:04:01;;;;;;;5.77;1.57;;;10.40;99.90;;;;;;5078988;28;20885;-52
2021/11/21 09:06:28;;;;;;;5.57;1.70;;;10.40;99.90;;;;;;5075751;28;20298;-52
2021/11/21 09:08:55;;;;;;;2.40;1.20;;;10.40;99.90;;;;;;5079732;28;20231;-51
2021/11/21 09:11:23;;;;;;;2.30;1.13;;;10.40;99.90;;;;;;5079980;28;20198;-51
2021/11/21 09:13:49;;;;;;;8.27;1.70;;;10.40;99.90;;;;;;5077667;28;20660;-51
2021/11/21 09:16:16;;;;;;;7.23;1.67;;;10.40;99.90;;;;;;5078299;28;20203;-51
2021/11/21 09:18:43;;;;;;;4.50;1.23;;;10.30;99.90;;;;;;5075407;28;20230;-49
2021/11/21 09:21:10;;;;;;;3.80;1.53;;;10.40;99.90;;;;;;5075224;28;20333;-51
2021/11/21 09:23:40;;;;;;;7.57;2.00;;;10.40;99.90;;;;;;5069925;28;20227;-50
2021/11/21 09:26:07;;;;;;;6.87;1.17;;;10.30;99.90;;;;;;5076505;28;20207;-50
2021/11/21 09:28:34;;;;;;;7.77;1.40;;;10.30;99.90;;;;;;5063718;28;20194;-51
2021/11/21 09:31:01;;;;;;;7.27;1.30;;;10.50;99.90;;;;;;5076127;28;20289;-53
2021/11/21 09:33:31;;;;;;;4.47;1.20;;;10.40;99.90;;;;;;5059989;28;20205;-52
2021/11/21 09:35:58;;;;;;;10.90;1.53;;;10.40;99.90;;;;;;5056084;28;20234;-50
2021/11/21 09:38:26;;;;;;;5.63;1.40;;;10.30;99.90;;;;;;5078157;28;20199;-51
2021/11/21 09:40:55;;;;;;;6.23;1.50;;;10.30;99.90;;;;;;5076423;28;20681;-50
2021/11/21 09:43:22;;;;;;;6.00;1.20;;;10.20;99.90;;;;;;5076389;28;20707;-52
2021/11/21 09:45:49;;;;;;;5.80;1.23;;;10.20;99.90;;;;;;5077605;28;20527;-52
2021/11/21 09:48:17;;;;;;;5.60;1.03;;;10.30;99.90;;;;;;5077576;28;20582;-54
2021/11/21 09:50:44;;;;;;;6.70;1.30;;;10.20;99.90;;;;;;5066344;28;20305;-51
2021/11/21 09:53:15;;;;;;;4.07;1.20;;;10.10;99.90;;;;;;5046864;28;20743;-52
2021/11/21 09:55:42;;;;;;;9.40;1.40;;;10.10;99.90;;;;;;5068363;28;20707;-51
2021/11/21 09:58:09;;;;;;;7.73;1.13;;;10.20;99.90;;;;;;5079869;28;20622;-52
2021/11/21 10:00:36;;;;;;;4.67;1.47;;;10.20;99.90;;;;;;5077199;28;20324;-51
2021/11/21 10:03:07;;;;;;;5.30;1.43;;;10.20;99.90;;;;;;5072133;28;20644;-51
2021/11/21 10:05:50;;;;;;;4.67;1.30;;;10.30;99.90;;;;;;5075328;28;20287;-53
2021/11/21 10:08:21;;;;;;;4.33;1.53;;;10.30;99.90;;;;;;5067339;28;20198;-51
2021/11/21 10:11:00;;;;;;;5.87;1.17;;;10.50;99.90;;;;;;5072079;28;20222;-54
2021/11/21 10:13:34;;;;;;;6.27;1.27;;;10.60;99.90;;;;;;5055526;28;20329;-52
2021/11/21 10:16:16;;;;;;;6.20;1.20;;;10.60;99.90;;;;;;5078840;28;20206;-53
2021/11/21 10:18:55;;;;;;;2.43;0.87;;;10.40;99.90;;;;;;5078726;28;20229;-52
2021/11/21 10:21:35;;;;;;;6.10;1.07;;;10.40;99.90;;;;;;5069024;28;20324;-52
2021/11/21 10:24:14;;;;;;;4.50;1.40;;;10.50;99.90;;;;;;5062428;28;20199;-58
2021/11/21 10:26:42;;;;;;;8.97;1.40;;;10.50;99.90;;;;;;5068413;28;20203;-53
2021/11/21 10:29:30;;;;;;;3.83;1.10;;;10.40;99.90;;;;;;5078830;28;20230;-61
2021/11/21 10:31:58;;;;;;;6.40;1.33;;;10.60;99.90;;;;;;5078262;28;20272;-61
2021/11/21 10:34:26;;;;;;;8.13;1.43;;;10.70;99.90;;;;;;5078523;28;20667;-64
2021/11/21 10:36:54;;;;;;;10.50;1.60;;;10.80;99.90;;;;;;5075068;28;20203;-59
2021/11/21 10:39:27;;;;;;;6.20;1.30;;;10.90;99.90;;;;;;5073843;28;20266;-58
2021/11/21 10:41:56;;;;;;;7.20;1.67;;;10.80;99.90;;;;;;5062788;28;20227;-59
2021/11/21 10:44:24;;;;;;;6.20;1.70;;;11.00;99.90;;;;;;5071377;28;20200;-59
2021/11/21 10:46:57;;;;;;;5.10;1.37;;;10.90;99.90;;;;;;5080998;28;20684;-60
2021/11/21 10:49:39;;;;;;;7.67;1.57;;;10.80;99.90;;;;;;5079791;28;20641;-60
2021/11/21 10:52:18;;;;;;;5.73;1.70;;;10.90;99.90;;;;;;5077298;28;20247;-51
2021/11/21 10:54:57;;;;;;;9.00;1.77;;;10.90;99.90;;;;;;5079520;28;20261;-53
2021/11/21 10:57:25;;;;;;;8.00;2.43;;;11.10;99.90;;;;;;5079104;28;20222;-53
2021/11/21 11:00:00;;;;;;;8.57;1.60;;;11.30;99.90;;;;;;5075173;28;20211;-53
2021/11/21 11:02:36;;;;;;;5.90;1.20;;;11.30;99.90;;;;;;5079509;28;20294;-51
2021/11/21 11:05:16;;;;;;;7.33;1.43;;;11.00;99.90;;;;;;5082608;28;20604;-52
2021/11/21 11:07:43;;;;;;;7.10;1.27;;;11.10;99.90;;;;;;5078721;28;20244;-52
2021/11/21 11:10:24;;;;;;;6.87;1.50;;;11.20;99.90;;;;;;5081801;28;20291;-52
2021/11/21 11:13:00;;;;;;;8.33;2.13;;;11.20;99.90;;;;;;5071239;28;20351;-51
2021/11/21 11:15:28;;;;;;;6.27;1.57;;;11.10;99.90;;;;;;5079313;28;20205;-52
2021/11/21 11:17:56;;;;;;;8.03;2.77;;;11.10;99.90;;;;;;5079394;28;20305;-52
2021/11/21 11:20:24;;;;;;;2.67;0.80;;;11.30;99.90;;;;;;5079107;28;20679;-52
2021/11/21 11:22:52;;;;;;;5.57;1.47;;;11.20;99.90;;;;;;5081489;28;20318;-51
2021/11/21 11:25:22;;;;;;;7.33;1.57;;;11.10;99.90;;;;;;5074422;28;20206;-52
2021/11/21 11:27:51;;;;;;;7.10;1.23;;;11.20;99.90;;;;;;5073912;28;20282;-53
2021/11/21 11:30:30;;;;;;;6.63;1.37;;;11.30;99.90;;;;;;5079949;28;20742;-53
2021/11/21 11:33:12;;;;;;;4.87;1.57;;;11.80;99.90;;;;;;5078316;28;20204;-53
2021/11/21 11:35:51;;;;;;;6.00;2.03;;;12.20;99.90;;;;;;5075432;28;20299;-52
2021/11/21 11:38:26;;;;;;;6.17;1.23;;;12.20;99.90;;;;;;5076833;28;20614;-52
2021/11/21 11:40:57;;;;;;;6.83;1.40;;;11.70;99.90;;;;;;5076756;28;20230;-54
2021/11/21 11:43:40;;;;;;;6.17;1.80;;;11.80;99.90;;;;;;5074726;28;20334;-51
2021/11/21 11:46:23;;;;;;;9.83;2.10;;;11.60;99.90;;;;;;5085959;28;20337;-52
2021/11/21 11:48:59;;;;;;;9.90;2.40;;;11.80;99.90;;;;;;5078283;28;20202;-52
2021/11/21 11:51:35;;;;;;;5.03;1.20;;;11.80;99.90;;;;;;5082755;28;20290;-51
2021/11/21 11:54:24;;;;;;;3.57;1.50;;;11.50;99.90;;;;;;5083293;28;20257;-51
2021/11/21 11:57:08;;;;;;;8.83;1.40;;;11.70;99.90;;;;;;5075690;28;20215;-52
2021/11/21 11:59:38;;;;;;;4.07;1.47;;;11.60;99.90;;;;;;5066834;28;20199;-52
2021/11/21 12:02:13;;;;;;;7.57;1.27;;;11.60;99.90;;;;;;5084063;28;20268;-51
2021/11/21 12:04:40;;;;;;;6.00;1.60;;;11.50;99.90;;;;;;5074135;28;21494;-51
2021/11/21 12:07:22;;;;;;;2.20;1.07;;;11.40;99.90;;;;;;5075147;28;20269;-53
2021/11/21 12:10:12;;;;;;;6.57;1.83;;;11.40;99.90;;;;;;5075072;28;20219;-52
2021/11/21 12:13:02;;;;;;;7.00;2.47;;;11.50;99.90;;;;;;5082933;28;20255;-51
2021/11/21 12:15:33;;;;;;;8.63;2.37;;;11.50;99.90;;;;;;5082961;28;20203;-51
2021/11/21 12:18:01;;;;;;;5.07;1.73;;;11.50;99.90;;;;;;5075669;28;20199;-51
2021/11/21 12:20:54;;;;;;;8.90;1.80;;;11.30;99.90;;;;;;5071030;28;20743;-53
2021/11/21 12:23:42;;;;;;;5.23;1.50;;;11.30;99.90;;;;;;5064416;28;20278;-51
2021/11/21 12:26:41;;;;;;;7.87;1.37;;;11.30;99.90;;;;;;5076610;28;20616;-52
2021/11/21 12:29:32;;;;;;;8.37;1.93;;;11.50;99.90;;;;;;5073144;28;20195;-50
2021/11/21 12:32:23;;;;;;;12.60;3.17;;;11.80;99.90;;;;;;5078613;28;20339;-53
2021/11/21 12:34:51;;;;;;;5.87;2.07;;;12.20;99.90;;;;;;5077115;28;20230;-52
2021/11/21 12:37:29;;;;;;;16.40;2.63;;;12.80;99.90;;;;;;5077784;28;20275;-52
2021/11/21 12:40:10;;;;;;;4.90;1.60;;;13.40;99.90;;;;;;5077282;28;20253;-52
2021/11/21 12:42:39;;;;;;;4.77;0.90;;;13.40;99.90;;;;;;5078428;28;20738;-50
2021/11/21 12:45:21;;;;;;;5.07;1.20;;;13.40;99.90;;;;;;5078456;28;20245;-54
2021/11/21 12:47:53;;;;;;;4.87;1.00;;;13.30;99.90;;;;;;5079791;28;20705;-51
2021/11/21 12:50:31;;;;;;;2.83;1.30;;;13.30;99.90;;;;;;5078849;28;20666;-50
2021/11/21 12:53:03;;;;;;;5.53;1.30;;;13.50;99.90;;;;;;5079963;28;20314;-51